Terminal Aerodrome Forecast
Issued by NWS Buffalo, NY

Home | Current Version | Previous Version | Text Only | Print | Product List | Glossary On
Versions: 1 2 3 4 5 6 7 8 9 10 11 12 13 14 15 16 17 18 19 20 21 22 23 24 25 26 27 28
000
FTUS41 KBUF 172300
TAFROC
TAF
KROC 172332Z 1800/1824 28005KT P6SM SCT200
     FM180600 27006KT P6SM BKN040
     FM181200 04009KT P6SM BKN015
     FM182100 02007KT P6SM BKN025
     FM182300 02006KT P6SM SCT035=

USA.gov is the U.S. government's official web portal to all federal, state and local government web resources and services.